sensor_id;sensor_type;location;lat;lon;timestamp;temperature;humidity
67054;SHT31;53960;51.826;5.850;2024-03-29T00:01:57;9.08;79.58
67054;SHT31;53960;51.826;5.850;2024-03-29T00:04:23;9.11;79.61
67054;SHT31;53960;51.826;5.850;2024-03-29T00:06:48;9.12;79.62
67054;SHT31;53960;51.826;5.850;2024-03-29T00:09:13;9.14;79.58
67054;SHT31;53960;51.826;5.850;2024-03-29T00:11:39;9.12;79.50
67054;SHT31;53960;51.826;5.850;2024-03-29T00:14:04;9.14;79.57
67054;SHT31;53960;51.826;5.850;2024-03-29T00:16:30;9.06;79.72
67054;SHT31;53960;51.826;5.850;2024-03-29T00:18:55;9.06;79.55
67054;SHT31;53960;51.826;5.850;2024-03-29T00:21:21;9.04;79.66
67054;SHT31;53960;51.826;5.850;2024-03-29T00:23:46;9.12;79.68
67054;SHT31;53960;51.826;5.850;2024-03-29T00:26:12;9.02;79.62
67054;SHT31;53960;51.826;5.850;2024-03-29T00:28:40;9.12;79.52
67054;SHT31;53960;51.826;5.850;2024-03-29T00:31:07;9.11;79.43
67054;SHT31;53960;51.826;5.850;2024-03-29T00:33:33;9.20;79.28
67054;SHT31;53960;51.826;5.850;2024-03-29T00:35:58;9.15;79.12
67054;SHT31;53960;51.826;5.850;2024-03-29T00:38:23;9.11;79.34
67054;SHT31;53960;51.826;5.850;2024-03-29T00:40:50;9.14;79.17
67054;SHT31;53960;51.826;5.850;2024-03-29T00:43:15;9.15;79.34
67054;SHT31;53960;51.826;5.850;2024-03-29T00:45:41;9.09;79.46
67054;SHT31;53960;51.826;5.850;2024-03-29T00:48:06;9.09;79.53
67054;SHT31;53960;51.826;5.850;2024-03-29T00:50:32;9.04;79.56
67054;SHT31;53960;51.826;5.850;2024-03-29T00:52:57;9.05;79.57
67054;SHT31;53960;51.826;5.850;2024-03-29T00:55:23;9.06;79.34
67054;SHT31;53960;51.826;5.850;2024-03-29T00:57:48;9.18;78.97
67054;SHT31;53960;51.826;5.850;2024-03-29T01:00:14;9.08;79.43
67054;SHT31;53960;51.826;5.850;2024-03-29T01:02:40;9.02;79.40
67054;SHT31;53960;51.826;5.850;2024-03-29T01:05:06;9.08;79.26
67054;SHT31;53960;51.826;5.850;2024-03-29T01:07:31;9.06;79.28
67054;SHT31;53960;51.826;5.850;2024-03-29T01:09:57;9.11;79.31
67054;SHT31;53960;51.826;5.850;2024-03-29T01:12:22;9.05;79.17
67054;SHT31;53960;51.826;5.850;2024-03-29T01:14:47;9.01;79.37
67054;SHT31;53960;51.826;5.850;2024-03-29T01:17:13;9.01;79.49
67054;SHT31;53960;51.826;5.850;2024-03-29T01:19:39;9.08;79.21
67054;SHT31;53960;51.826;5.850;2024-03-29T01:22:04;9.08;79.27
67054;SHT31;53960;51.826;5.850;2024-03-29T01:24:30;9.05;79.40
67054;SHT31;53960;51.826;5.850;2024-03-29T01:26:55;9.06;79.40
67054;SHT31;53960;51.826;5.850;2024-03-29T01:29:21;9.06;79.36
67054;SHT31;53960;51.826;5.850;2024-03-29T01:31:46;9.11;79.17
67054;SHT31;53960;51.826;5.850;2024-03-29T01:34:14;9.05;79.09
67054;SHT31;53960;51.826;5.850;2024-03-29T01:36:39;9.15;78.95
67054;SHT31;53960;51.826;5.850;2024-03-29T01:39:05;9.04;79.00
67054;SHT31;53960;51.826;5.850;2024-03-29T01:41:32;9.06;78.97
67054;SHT31;53960;51.826;5.850;2024-03-29T01:43:58;9.05;79.15
67054;SHT31;53960;51.826;5.850;2024-03-29T01:46:23;9.02;79.27
67054;SHT31;53960;51.826;5.850;2024-03-29T01:48:50;8.91;79.41
67054;SHT31;53960;51.826;5.850;2024-03-29T01:51:17;9.05;79.06
67054;SHT31;53960;51.826;5.850;2024-03-29T01:53:43;9.06;79.16
67054;SHT31;53960;51.826;5.850;2024-03-29T01:56:09;9.02;79.18
67054;SHT31;53960;51.826;5.850;2024-03-29T01:58:35;8.96;79.18
67054;SHT31;53960;51.826;5.850;2024-03-29T02:01:02;9.08;78.95
67054;SHT31;53960;51.826;5.850;2024-03-29T02:03:28;9.09;78.79
67054;SHT31;53960;51.826;5.850;2024-03-29T02:05:54;9.08;79.04
67054;SHT31;53960;51.826;5.850;2024-03-29T02:08:21;9.09;78.93
67054;SHT31;53960;51.826;5.850;2024-03-29T02:10:47;9.01;79.11
67054;SHT31;53960;51.826;5.850;2024-03-29T02:13:13;9.15;78.86
67054;SHT31;53960;51.826;5.850;2024-03-29T02:15:41;9.11;78.86
67054;SHT31;53960;51.826;5.850;2024-03-29T02:18:07;9.06;79.08
67054;SHT31;53960;51.826;5.850;2024-03-29T02:20:34;9.12;79.22
67054;SHT31;53960;51.826;5.850;2024-03-29T02:23:11;9.06;79.37
67054;SHT31;53960;51.826;5.850;2024-03-29T02:25:39;9.04;79.48
67054;SHT31;53960;51.826;5.850;2024-03-29T02:28:04;9.20;79.04
67054;SHT31;53960;51.826;5.850;2024-03-29T02:30:31;9.11;79.33
67054;SHT31;53960;51.826;5.850;2024-03-29T02:33:00;9.14;79.46
67054;SHT31;53960;51.826;5.850;2024-03-29T02:35:26;9.22;79.09
67054;SHT31;53960;51.826;5.850;2024-03-29T02:37:52;9.25;79.19
67054;SHT31;53960;51.826;5.850;2024-03-29T02:40:18;9.23;79.15
67054;SHT31;53960;51.826;5.850;2024-03-29T02:42:44;9.22;79.49
67054;SHT31;53960;51.826;5.850;2024-03-29T02:45:09;9.29;78.93
67054;SHT31;53960;51.826;5.850;2024-03-29T02:47:35;9.35;79.20
67054;SHT31;53960;51.826;5.850;2024-03-29T02:50:00;9.33;79.00
67054;SHT31;53960;51.826;5.850;2024-03-29T02:52:26;9.33;79.10
67054;SHT31;53960;51.826;5.850;2024-03-29T02:54:51;9.27;79.38
67054;SHT31;53960;51.826;5.850;2024-03-29T02:57:16;9.37;79.25
67054;SHT31;53960;51.826;5.850;2024-03-29T02:59:42;9.35;79.31
67054;SHT31;53960;51.826;5.850;2024-03-29T03:02:08;9.36;79.53
67054;SHT31;53960;51.826;5.850;2024-03-29T03:04:33;9.37;79.38
67054;SHT31;53960;51.826;5.850;2024-03-29T03:06:59;9.37;79.24
67054;SHT31;53960;51.826;5.850;2024-03-29T03:09:44;9.33;79.27
67054;SHT31;53960;51.826;5.850;2024-03-29T03:12:31;9.43;79.07
67054;SHT31;53960;51.826;5.850;2024-03-29T03:14:57;9.47;79.02
67054;SHT31;53960;51.826;5.850;2024-03-29T03:17:27;9.36;79.53
67054;SHT31;53960;51.826;5.850;2024-03-29T03:19:53;9.42;79.42
67054;SHT31;53960;51.826;5.850;2024-03-29T03:22:18;9.37;79.42
67054;SHT31;53960;51.826;5.850;2024-03-29T03:24:44;9.42;80.32
67054;SHT31;53960;51.826;5.850;2024-03-29T03:27:09;9.46;81.00
67054;SHT31;53960;51.826;5.850;2024-03-29T03:29:35;9.39;81.46
67054;SHT31;53960;51.826;5.850;2024-03-29T03:32:00;9.43;82.08
67054;SHT31;53960;51.826;5.850;2024-03-29T03:34:26;9.44;82.97
67054;SHT31;53960;51.826;5.850;2024-03-29T03:36:51;9.43;83.45
67054;SHT31;53960;51.826;5.850;2024-03-29T03:39:16;9.37;83.91
67054;SHT31;53960;51.826;5.850;2024-03-29T03:41:42;9.29;84.36
67054;SHT31;53960;51.826;5.850;2024-03-29T03:44:07;9.23;84.03
67054;SHT31;53960;51.826;5.850;2024-03-29T03:46:32;9.25;84.89
67054;SHT31;53960;51.826;5.850;2024-03-29T03:48:58;9.29;85.12
67054;SHT31;53960;51.826;5.850;2024-03-29T03:51:23;9.25;85.52
67054;SHT31;53960;51.826;5.850;2024-03-29T03:53:49;9.15;87.22
67054;SHT31;53960;51.826;5.850;2024-03-29T03:56:14;9.20;87.40
67054;SHT31;53960;51.826;5.850;2024-03-29T03:58:39;9.14;88.20
67054;SHT31;53960;51.826;5.850;2024-03-29T04:01:07;9.18;88.15
67054;SHT31;53960;51.826;5.850;2024-03-29T04:03:32;9.15;88.57
67054;SHT31;53960;51.826;5.850;2024-03-29T04:05:57;9.16;88.80
67054;SHT31;53960;51.826;5.850;2024-03-29T04:08:23;9.19;88.24
67054;SHT31;53960;51.826;5.850;2024-03-29T04:10:48;9.22;88.35
67054;SHT31;53960;51.826;5.850;2024-03-29T04:13:13;9.16;88.66
67054;SHT31;53960;51.826;5.850;2024-03-29T04:15:39;9.11;88.80
67054;SHT31;53960;51.826;5.850;2024-03-29T04:18:06;9.06;89.42
67054;SHT31;53960;51.826;5.850;2024-03-29T04:20:31;8.98;90.26
67054;SHT31;53960;51.826;5.850;2024-03-29T04:22:57;8.99;90.22
67054;SHT31;53960;51.826;5.850;2024-03-29T04:25:22;8.96;90.56
67054;SHT31;53960;51.826;5.850;2024-03-29T04:27:48;8.95;90.85
67054;SHT31;53960;51.826;5.850;2024-03-29T04:30:13;8.91;90.81
67054;SHT31;53960;51.826;5.850;2024-03-29T04:32:39;8.89;90.99
67054;SHT31;53960;51.826;5.850;2024-03-29T04:35:04;8.88;91.27
67054;SHT31;53960;51.826;5.850;2024-03-29T04:37:30;8.88;91.69
67054;SHT31;53960;51.826;5.850;2024-03-29T04:39:55;8.85;91.93
67054;SHT31;53960;51.826;5.850;2024-03-29T04:42:21;8.82;92.63
67054;SHT31;53960;51.826;5.850;2024-03-29T04:44:46;8.81;92.76
67054;SHT31;53960;51.826;5.850;2024-03-29T04:47:12;8.75;93.31
67054;SHT31;53960;51.826;5.850;2024-03-29T04:49:37;8.79;93.02
67054;SHT31;53960;51.826;5.850;2024-03-29T04:52:04;8.82;92.93
67054;SHT31;53960;51.826;5.850;2024-03-29T04:54:30;8.77;93.14
67054;SHT31;53960;51.826;5.850;2024-03-29T04:56:55;8.78;92.91
67054;SHT31;53960;51.826;5.850;2024-03-29T04:59:21;8.71;92.92
67054;SHT31;53960;51.826;5.850;2024-03-29T05:01:47;8.68;93.18
67054;SHT31;53960;51.826;5.850;2024-03-29T05:04:17;8.68;93.40
67054;SHT31;53960;51.826;5.850;2024-03-29T05:06:44;8.63;93.64
67054;SHT31;53960;51.826;5.850;2024-03-29T05:09:10;8.55;94.12
67054;SHT31;53960;51.826;5.850;2024-03-29T05:11:37;8.53;94.61
67054;SHT31;53960;51.826;5.850;2024-03-29T05:14:02;8.43;94.72
67054;SHT31;53960;51.826;5.850;2024-03-29T05:16:29;8.41;94.82
67054;SHT31;53960;51.826;5.850;2024-03-29T05:18:54;8.46;95.17
67054;SHT31;53960;51.826;5.850;2024-03-29T05:21:20;8.43;95.52
67054;SHT31;53960;51.826;5.850;2024-03-29T05:23:45;8.47;95.28
67054;SHT31;53960;51.826;5.850;2024-03-29T05:26:10;8.43;95.59
67054;SHT31;53960;51.826;5.850;2024-03-29T05:28:36;8.43;95.81
67054;SHT31;53960;51.826;5.850;2024-03-29T05:31:11;8.43;96.09
67054;SHT31;53960;51.826;5.850;2024-03-29T05:33:38;8.43;96.16
67054;SHT31;53960;51.826;5.850;2024-03-29T05:36:04;8.47;96.20
67054;SHT31;53960;51.826;5.850;2024-03-29T05:38:32;8.48;96.34
67054;SHT31;53960;51.826;5.850;2024-03-29T05:40:57;8.50;96.38
67054;SHT31;53960;51.826;5.850;2024-03-29T05:43:23;8.43;96.73
67054;SHT31;53960;51.826;5.850;2024-03-29T05:45:52;8.40;96.92
67054;SHT31;53960;51.826;5.850;2024-03-29T05:48:17;8.38;97.02
67054;SHT31;53960;51.826;5.850;2024-03-29T05:50:44;8.38;97.48
67054;SHT31;53960;51.826;5.850;2024-03-29T05:53:10;8.43;97.27
67054;SHT31;53960;51.826;5.850;2024-03-29T05:55:36;8.40;97.46
67054;SHT31;53960;51.826;5.850;2024-03-29T05:58:01;8.40;97.53
67054;SHT31;53960;51.826;5.850;2024-03-29T06:00:28;8.40;97.60
67054;SHT31;53960;51.826;5.850;2024-03-29T06:02:54;8.41;97.50
67054;SHT31;53960;51.826;5.850;2024-03-29T06:05:20;8.47;97.32
67054;SHT31;53960;51.826;5.850;2024-03-29T06:07:45;8.41;97.44
67054;SHT31;53960;51.826;5.850;2024-03-29T06:10:11;8.38;97.71
67054;SHT31;53960;51.826;5.850;2024-03-29T06:12:36;8.37;97.69
67054;SHT31;53960;51.826;5.850;2024-03-29T06:15:04;8.34;97.71
67054;SHT31;53960;51.826;5.850;2024-03-29T06:17:48;8.46;97.56
67054;SHT31;53960;51.826;5.850;2024-03-29T06:20:14;8.46;97.75
67054;SHT31;53960;51.826;5.850;2024-03-29T06:22:39;8.46;97.85
67054;SHT31;53960;51.826;5.850;2024-03-29T06:25:05;8.43;97.96
67054;SHT31;53960;51.826;5.850;2024-03-29T06:27:34;8.50;97.87
67054;SHT31;53960;51.826;5.850;2024-03-29T06:30:00;8.53;97.59
67054;SHT31;53960;51.826;5.850;2024-03-29T06:32:26;8.43;97.73
67054;SHT31;53960;51.826;5.850;2024-03-29T06:34:51;8.40;97.75
67054;SHT31;53960;51.826;5.850;2024-03-29T06:37:16;8.47;97.69
67054;SHT31;53960;51.826;5.850;2024-03-29T06:39:42;8.44;97.65
67054;SHT31;53960;51.826;5.850;2024-03-29T06:42:09;8.48;97.63
67054;SHT31;53960;51.826;5.850;2024-03-29T06:44:35;8.38;97.88
67054;SHT31;53960;51.826;5.850;2024-03-29T06:47:02;8.41;97.93
67054;SHT31;53960;51.826;5.850;2024-03-29T06:49:27;8.47;97.87
67054;SHT31;53960;51.826;5.850;2024-03-29T06:51:53;8.51;97.63
67054;SHT31;53960;51.826;5.850;2024-03-29T06:54:19;8.44;97.86
67054;SHT31;53960;51.826;5.850;2024-03-29T06:56:50;8.46;97.96
67054;SHT31;53960;51.826;5.850;2024-03-29T06:59:15;8.61;97.87
67054;SHT31;53960;51.826;5.850;2024-03-29T07:01:41;8.65;97.82
67054;SHT31;53960;51.826;5.850;2024-03-29T07:04:06;8.68;97.59
67054;SHT31;53960;51.826;5.850;2024-03-29T07:06:31;8.64;97.96
67054;SHT31;53960;51.826;5.850;2024-03-29T07:08:57;8.65;97.98
67054;SHT31;53960;51.826;5.850;2024-03-29T07:11:22;8.65;97.92
67054;SHT31;53960;51.826;5.850;2024-03-29T07:13:47;8.68;97.71
67054;SHT31;53960;51.826;5.850;2024-03-29T07:16:13;8.67;97.92
67054;SHT31;53960;51.826;5.850;2024-03-29T07:18:38;8.75;97.75
67054;SHT31;53960;51.826;5.850;2024-03-29T07:21:04;8.79;97.45
67054;SHT31;53960;51.826;5.850;2024-03-29T07:23:29;8.82;97.60
67054;SHT31;53960;51.826;5.850;2024-03-29T07:26:01;8.81;97.69
67054;SHT31;53960;51.826;5.850;2024-03-29T07:28:28;8.84;97.44
67054;SHT31;53960;51.826;5.850;2024-03-29T07:30:53;8.88;97.18
67054;SHT31;53960;51.826;5.850;2024-03-29T07:33:22;8.93;97.23
67054;SHT31;53960;51.826;5.850;2024-03-29T07:35:55;8.99;97.19
67054;SHT31;53960;51.826;5.850;2024-03-29T07:38:21;9.01;97.24
67054;SHT31;53960;51.826;5.850;2024-03-29T07:40:49;9.05;96.95
67054;SHT31;53960;51.826;5.850;2024-03-29T07:43:14;8.99;96.91
67054;SHT31;53960;51.826;5.850;2024-03-29T07:45:43;9.01;97.14
67054;SHT31;53960;51.826;5.850;2024-03-29T07:48:13;8.99;97.15
67054;SHT31;53960;51.826;5.850;2024-03-29T07:50:42;9.04;97.40
67054;SHT31;53960;51.826;5.850;2024-03-29T07:53:07;8.99;97.42
67054;SHT31;53960;51.826;5.850;2024-03-29T07:55:35;8.99;96.92
67054;SHT31;53960;51.826;5.850;2024-03-29T07:58:00;8.92;96.99
67054;SHT31;53960;51.826;5.850;2024-03-29T08:00:26;8.99;96.88
67054;SHT31;53960;51.826;5.850;2024-03-29T08:02:52;8.93;96.93
67054;SHT31;53960;51.826;5.850;2024-03-29T08:05:21;8.95;97.20
67054;SHT31;53960;51.826;5.850;2024-03-29T08:07:47;8.92;97.01
67054;SHT31;53960;51.826;5.850;2024-03-29T08:10:12;8.99;96.90
67054;SHT31;53960;51.826;5.850;2024-03-29T08:12:38;9.06;96.86
67054;SHT31;53960;51.826;5.850;2024-03-29T08:15:04;9.06;96.80
67054;SHT31;53960;51.826;5.850;2024-03-29T08:17:29;9.11;96.61
67054;SHT31;53960;51.826;5.850;2024-03-29T08:19:55;9.16;96.62
67054;SHT31;53960;51.826;5.850;2024-03-29T08:22:20;9.23;96.46
67054;SHT31;53960;51.826;5.850;2024-03-29T08:24:46;9.27;96.43
67054;SHT31;53960;51.826;5.850;2024-03-29T08:27:11;9.32;96.55
67054;SHT31;53960;51.826;5.850;2024-03-29T08:29:37;9.42;96.35
67054;SHT31;53960;51.826;5.850;2024-03-29T08:32:03;9.53;96.17
67054;SHT31;53960;51.826;5.850;2024-03-29T08:34:29;9.60;96.04
67054;SHT31;53960;51.826;5.850;2024-03-29T08:37:02;9.69;95.53
67054;SHT31;53960;51.826;5.850;2024-03-29T08:39:29;9.85;95.32
67054;SHT31;53960;51.826;5.850;2024-03-29T08:41:54;9.99;95.05
67054;SHT31;53960;51.826;5.850;2024-03-29T08:44:19;10.12;94.61
67054;SHT31;53960;51.826;5.850;2024-03-29T08:46:45;10.24;93.95
67054;SHT31;53960;51.826;5.850;2024-03-29T08:49:10;10.41;94.03
67054;SHT31;53960;51.826;5.850;2024-03-29T08:51:36;10.52;93.60
67054;SHT31;53960;51.826;5.850;2024-03-29T08:54:01;10.55;92.41
67054;SHT31;53960;51.826;5.850;2024-03-29T08:56:30;10.60;92.43
67054;SHT31;53960;51.826;5.850;2024-03-29T08:58:56;10.63;92.50
67054;SHT31;53960;51.826;5.850;2024-03-29T09:01:23;10.42;92.08
67054;SHT31;53960;51.826;5.850;2024-03-29T09:03:49;10.43;92.46
67054;SHT31;53960;51.826;5.850;2024-03-29T09:06:14;10.39;92.10
67054;SHT31;53960;51.826;5.850;2024-03-29T09:08:41;10.43;92.43
67054;SHT31;53960;51.826;5.850;2024-03-29T09:11:07;10.38;92.55
67054;SHT31;53960;51.826;5.850;2024-03-29T09:13:32;10.46;92.28
67054;SHT31;53960;51.826;5.850;2024-03-29T09:15:57;10.52;92.13
67054;SHT31;53960;51.826;5.850;2024-03-29T09:18:23;10.57;92.35
67054;SHT31;53960;51.826;5.850;2024-03-29T09:20:59;10.77;92.41
67054;SHT31;53960;51.826;5.850;2024-03-29T09:23:28;10.85;91.86
67054;SHT31;53960;51.826;5.850;2024-03-29T09:25:55;10.94;91.80
67054;SHT31;53960;51.826;5.850;2024-03-29T09:28:21;10.90;91.17
67054;SHT31;53960;51.826;5.850;2024-03-29T09:30:47;10.85;91.06
67054;SHT31;53960;51.826;5.850;2024-03-29T09:33:13;10.80;91.09
67054;SHT31;53960;51.826;5.850;2024-03-29T09:35:38;10.80;90.52
67054;SHT31;53960;51.826;5.850;2024-03-29T09:38:04;10.81;90.37
67054;SHT31;53960;51.826;5.850;2024-03-29T09:40:29;10.79;90.91
67054;SHT31;53960;51.826;5.850;2024-03-29T09:42:56;10.97;90.76
67054;SHT31;53960;51.826;5.850;2024-03-29T09:45:34;11.14;90.93
67054;SHT31;53960;51.826;5.850;2024-03-29T09:48:04;11.28;89.63
67054;SHT31;53960;51.826;5.850;2024-03-29T09:50:31;11.44;89.26
67054;SHT31;53960;51.826;5.850;2024-03-29T09:52:58;11.63;88.49
67054;SHT31;53960;51.826;5.850;2024-03-29T09:55:23;11.81;88.49
67054;SHT31;53960;51.826;5.850;2024-03-29T09:57:50;11.89;88.95
67054;SHT31;53960;51.826;5.850;2024-03-29T10:00:16;11.94;87.35
67054;SHT31;53960;51.826;5.850;2024-03-29T10:02:43;12.00;87.44
67054;SHT31;53960;51.826;5.850;2024-03-29T10:05:09;12.09;87.23
67054;SHT31;53960;51.826;5.850;2024-03-29T10:07:36;12.14;87.64
67054;SHT31;53960;51.826;5.850;2024-03-29T10:10:03;12.14;86.88
67054;SHT31;53960;51.826;5.850;2024-03-29T10:12:29;12.12;88.21
67054;SHT31;53960;51.826;5.850;2024-03-29T10:14:56;12.14;87.35
67054;SHT31;53960;51.826;5.850;2024-03-29T10:17:31;12.16;87.55
67054;SHT31;53960;51.826;5.850;2024-03-29T10:20:00;12.14;88.22
67054;SHT31;53960;51.826;5.850;2024-03-29T10:22:26;12.23;87.05
67054;SHT31;53960;51.826;5.850;2024-03-29T10:24:51;12.29;87.32
67054;SHT31;53960;51.826;5.850;2024-03-29T10:27:17;12.31;86.74
67054;SHT31;53960;51.826;5.850;2024-03-29T10:29:42;12.44;86.93
67054;SHT31;53960;51.826;5.850;2024-03-29T10:32:08;12.55;86.91
67054;SHT31;53960;51.826;5.850;2024-03-29T10:34:34;12.68;85.95
67054;SHT31;53960;51.826;5.850;2024-03-29T10:37:02;12.75;86.09
67054;SHT31;53960;51.826;5.850;2024-03-29T10:39:31;12.79;86.25
67054;SHT31;53960;51.826;5.850;2024-03-29T10:41:59;12.75;85.89
67054;SHT31;53960;51.826;5.850;2024-03-29T10:44:25;12.75;85.60
67054;SHT31;53960;51.826;5.850;2024-03-29T10:46:52;12.82;86.89
67054;SHT31;53960;51.826;5.850;2024-03-29T10:49:18;12.85;85.56
67054;SHT31;53960;51.826;5.850;2024-03-29T10:51:43;12.81;84.97
67054;SHT31;53960;51.826;5.850;2024-03-29T10:54:10;12.85;85.09
67054;SHT31;53960;51.826;5.850;2024-03-29T10:56:37;12.93;85.35
67054;SHT31;53960;51.826;5.850;2024-03-29T10:59:12;13.13;84.70
67054;SHT31;53960;51.826;5.850;2024-03-29T11:01:44;13.33;84.80
67054;SHT31;53960;51.826;5.850;2024-03-29T11:04:22;13.36;82.94
67054;SHT31;53960;51.826;5.850;2024-03-29T11:06:50;13.46;82.39
67054;SHT31;53960;51.826;5.850;2024-03-29T11:09:19;13.53;81.74
67054;SHT31;53960;51.826;5.850;2024-03-29T11:11:48;13.63;81.14
67054;SHT31;53960;51.826;5.850;2024-03-29T11:14:20;13.77;80.66
67054;SHT31;53960;51.826;5.850;2024-03-29T11:16:46;13.73;80.38
67054;SHT31;53960;51.826;5.850;2024-03-29T11:19:14;13.74;80.50
67054;SHT31;53960;51.826;5.850;2024-03-29T11:21:40;13.87;79.66
67054;SHT31;53960;51.826;5.850;2024-03-29T11:24:08;13.97;79.88
67054;SHT31;53960;51.826;5.850;2024-03-29T11:26:34;14.12;78.71
67054;SHT31;53960;51.826;5.850;2024-03-29T11:29:00;14.11;77.62
67054;SHT31;53960;51.826;5.850;2024-03-29T11:31:27;14.15;78.22
67054;SHT31;53960;51.826;5.850;2024-03-29T11:33:52;14.19;77.18
67054;SHT31;53960;51.826;5.850;2024-03-29T11:36:23;14.24;77.16
67054;SHT31;53960;51.826;5.850;2024-03-29T11:38:53;14.11;76.55
67054;SHT31;53960;51.826;5.850;2024-03-29T11:41:25;14.15;76.77
67054;SHT31;53960;51.826;5.850;2024-03-29T11:43:53;14.05;77.74
67054;SHT31;53960;51.826;5.850;2024-03-29T11:46:19;14.01;77.46
67054;SHT31;53960;51.826;5.850;2024-03-29T11:48:45;14.09;78.19
67054;SHT31;53960;51.826;5.850;2024-03-29T11:51:14;14.21;77.58
67054;SHT31;53960;51.826;5.850;2024-03-29T11:53:40;14.25;76.57
67054;SHT31;53960;51.826;5.850;2024-03-29T11:56:06;14.46;75.80
67054;SHT31;53960;51.826;5.850;2024-03-29T11:58:33;14.53;75.52
67054;SHT31;53960;51.826;5.850;2024-03-29T12:00:59;14.72;76.64
67054;SHT31;53960;51.826;5.850;2024-03-29T12:03:27;14.75;74.97
67054;SHT31;53960;51.826;5.850;2024-03-29T12:05:54;14.73;74.84
67054;SHT31;53960;51.826;5.850;2024-03-29T12:08:24;14.62;75.16
67054;SHT31;53960;51.826;5.850;2024-03-29T12:10:49;14.53;75.12
67054;SHT31;53960;51.826;5.850;2024-03-29T12:13:16;14.56;75.14
67054;SHT31;53960;51.826;5.850;2024-03-29T12:15:42;14.55;75.56
67054;SHT31;53960;51.826;5.850;2024-03-29T12:18:08;14.63;75.50
67054;SHT31;53960;51.826;5.850;2024-03-29T12:20:38;14.72;75.50
67054;SHT31;53960;51.826;5.850;2024-03-29T12:23:05;14.67;75.13
67054;SHT31;53960;51.826;5.850;2024-03-29T12:25:32;14.70;73.78
67054;SHT31;53960;51.826;5.850;2024-03-29T12:27:59;14.66;73.78
67054;SHT31;53960;51.826;5.850;2024-03-29T12:30:26;14.67;74.31
67054;SHT31;53960;51.826;5.850;2024-03-29T12:35:32;14.72;74.92
67054;SHT31;53960;51.826;5.850;2024-03-29T12:38:04;14.83;74.44
67054;SHT31;53960;51.826;5.850;2024-03-29T12:40:32;15.01;74.13
67054;SHT31;53960;51.826;5.850;2024-03-29T12:43:06;15.10;73.61
67054;SHT31;53960;51.826;5.850;2024-03-29T12:45:34;15.10;73.38
67054;SHT31;53960;51.826;5.850;2024-03-29T12:48:00;15.00;73.88
67054;SHT31;53960;51.826;5.850;2024-03-29T12:50:29;15.12;73.86
67054;SHT31;53960;51.826;5.850;2024-03-29T12:52:56;15.12;74.21
67054;SHT31;53960;51.826;5.850;2024-03-29T12:55:23;15.08;72.61
67054;SHT31;53960;51.826;5.850;2024-03-29T12:57:49;15.17;72.21
67054;SHT31;53960;51.826;5.850;2024-03-29T13:00:15;15.21;72.93
67054;SHT31;53960;51.826;5.850;2024-03-29T13:02:41;15.27;72.17
67054;SHT31;53960;51.826;5.850;2024-03-29T13:05:07;15.45;71.35
67054;SHT31;53960;51.826;5.850;2024-03-29T13:07:33;15.62;72.28
67054;SHT31;53960;51.826;5.850;2024-03-29T13:09:59;15.82;71.80
67054;SHT31;53960;51.826;5.850;2024-03-29T13:12:29;15.83;69.83
67054;SHT31;53960;51.826;5.850;2024-03-29T13:14:55;15.76;69.82
67054;SHT31;53960;51.826;5.850;2024-03-29T13:17:21;15.75;69.35
67054;SHT31;53960;51.826;5.850;2024-03-29T13:19:46;15.81;69.36
67054;SHT31;53960;51.826;5.850;2024-03-29T13:22:11;15.70;69.62
67054;SHT31;53960;51.826;5.850;2024-03-29T13:24:37;15.70;70.11
67054;SHT31;53960;51.826;5.850;2024-03-29T13:27:05;15.70;69.22
67054;SHT31;53960;51.826;5.850;2024-03-29T13:29:31;15.73;69.24
67054;SHT31;53960;51.826;5.850;2024-03-29T13:31:58;15.70;68.69
67054;SHT31;53960;51.826;5.850;2024-03-29T13:34:24;15.76;69.39
67054;SHT31;53960;51.826;5.850;2024-03-29T13:36:54;15.81;69.48
67054;SHT31;53960;51.826;5.850;2024-03-29T13:39:20;15.81;68.56
67054;SHT31;53960;51.826;5.850;2024-03-29T13:41:48;15.85;67.87
67054;SHT31;53960;51.826;5.850;2024-03-29T13:44:14;15.85;68.28
67054;SHT31;53960;51.826;5.850;2024-03-29T13:46:42;15.82;69.45
67054;SHT31;53960;51.826;5.850;2024-03-29T13:49:08;15.78;69.79
67054;SHT31;53960;51.826;5.850;2024-03-29T13:51:33;15.82;70.16
67054;SHT31;53960;51.826;5.850;2024-03-29T13:53:58;15.79;68.03
67054;SHT31;53960;51.826;5.850;2024-03-29T13:56:24;15.78;68.15
67054;SHT31;53960;51.826;5.850;2024-03-29T13:58:52;15.72;68.80
67054;SHT31;53960;51.826;5.850;2024-03-29T14:01:18;15.85;69.17
67054;SHT31;53960;51.826;5.850;2024-03-29T14:03:43;15.92;69.16
67054;SHT31;53960;51.826;5.850;2024-03-29T14:06:09;15.96;69.12
67054;SHT31;53960;51.826;5.850;2024-03-29T14:08:35;15.95;68.61
67054;SHT31;53960;51.826;5.850;2024-03-29T14:11:01;15.90;68.29
67054;SHT31;53960;51.826;5.850;2024-03-29T14:13:26;15.95;67.52
67054;SHT31;53960;51.826;5.850;2024-03-29T14:15:52;16.02;68.62
67054;SHT31;53960;51.826;5.850;2024-03-29T14:18:17;15.96;67.70
67054;SHT31;53960;51.826;5.850;2024-03-29T14:20:43;15.95;68.27
67054;SHT31;53960;51.826;5.850;2024-03-29T14:23:09;15.97;69.23
67054;SHT31;53960;51.826;5.850;2024-03-29T14:25:37;16.00;69.23
67054;SHT31;53960;51.826;5.850;2024-03-29T14:28:03;16.00;69.80
67054;SHT31;53960;51.826;5.850;2024-03-29T14:30:29;16.10;69.42
67054;SHT31;53960;51.826;5.850;2024-03-29T14:32:55;16.05;69.53
67054;SHT31;53960;51.826;5.850;2024-03-29T14:35:21;16.06;70.14
67054;SHT31;53960;51.826;5.850;2024-03-29T14:37:46;16.00;69.40
67054;SHT31;53960;51.826;5.850;2024-03-29T14:40:12;15.92;69.64
67054;SHT31;53960;51.826;5.850;2024-03-29T14:42:40;15.97;70.03
67054;SHT31;53960;51.826;5.850;2024-03-29T14:45:06;16.02;69.00
67054;SHT31;53960;51.826;5.850;2024-03-29T14:47:32;16.05;69.16
67054;SHT31;53960;51.826;5.850;2024-03-29T14:50:01;16.02;69.52
67054;SHT31;53960;51.826;5.850;2024-03-29T14:52:28;16.07;69.18
67054;SHT31;53960;51.826;5.850;2024-03-29T14:54:53;16.03;69.16
67054;SHT31;53960;51.826;5.850;2024-03-29T14:57:19;16.06;70.13
67054;SHT31;53960;51.826;5.850;2024-03-29T14:59:50;16.16;69.67
67054;SHT31;53960;51.826;5.850;2024-03-29T15:02:15;16.27;69.84
67054;SHT31;53960;51.826;5.850;2024-03-29T15:04:41;16.37;68.99
67054;SHT31;53960;51.826;5.850;2024-03-29T15:07:06;16.38;70.37
67054;SHT31;53960;51.826;5.850;2024-03-29T15:09:33;16.31;71.02
67054;SHT31;53960;51.826;5.850;2024-03-29T15:11:58;16.21;70.93
67054;SHT31;53960;51.826;5.850;2024-03-29T15:14:24;16.17;71.05
67054;SHT31;53960;51.826;5.850;2024-03-29T15:16:49;15.96;71.83
67054;SHT31;53960;51.826;5.850;2024-03-29T15:19:15;16.03;72.31
67054;SHT31;53960;51.826;5.850;2024-03-29T15:21:40;16.12;71.92
67054;SHT31;53960;51.826;5.850;2024-03-29T15:24:08;16.14;71.72
67054;SHT31;53960;51.826;5.850;2024-03-29T15:26:34;16.23;70.62
67054;SHT31;53960;51.826;5.850;2024-03-29T15:29:02;16.27;70.37
67054;SHT31;53960;51.826;5.850;2024-03-29T15:31:42;16.23;71.04
67054;SHT31;53960;51.826;5.850;2024-03-29T15:34:12;16.37;70.14
67054;SHT31;53960;51.826;5.850;2024-03-29T15:36:37;16.20;71.11
67054;SHT31;53960;51.826;5.850;2024-03-29T15:39:04;16.07;71.08